createdAt,value
2023-01-23T00:00:19.464Z,24.10
2023-01-23T00:03:21.378Z,23.00
2023-01-23T00:06:18.217Z,23.00
2023-01-23T00:09:11.215Z,22.50
2023-01-23T00:12:05.436Z,20.20
2023-01-23T00:14:58.656Z,22.60
2023-01-23T00:17:42.655Z,23.40
2023-01-23T00:20:30.708Z,21.90
2023-01-23T00:23:23.534Z,22.60
2023-01-23T00:26:18.722Z,23.60
2023-01-23T00:29:11.683Z,22.30
2023-01-23T00:32:05.117Z,17.80
2023-01-23T00:34:58.772Z,15.40
2023-01-23T00:37:52.885Z,15.00
2023-01-23T00:40:38.391Z,15.20
2023-01-23T00:43:24.348Z,12.20
2023-01-23T00:46:17.529Z,13.00
2023-01-23T00:49:10.028Z,12.90
2023-01-23T00:52:02.963Z,12.70
2023-01-23T00:54:56.114Z,13.90
2023-01-23T00:57:48.861Z,13.40
2023-01-23T01:00:42.295Z,14.40
2023-01-23T01:03:35.216Z,14.40
2023-01-23T01:06:29.986Z,22.40
2023-01-23T01:09:22.957Z,25.70
2023-01-23T01:12:16.528Z,24.40
2023-01-23T01:15:12.192Z,14.20
2023-01-23T01:18:06.544Z,25.50
2023-01-23T01:20:52.759Z,20.90
2023-01-23T01:23:40.278Z,16.70
2023-01-23T01:26:33.556Z,20.40
2023-01-23T01:29:26.886Z,28.70
2023-01-23T01:32:19.732Z,17.10
2023-01-23T01:35:14.960Z,18.80
2023-01-23T01:38:00.682Z,27.30
2023-01-23T01:40:52.831Z,26.10
2023-01-23T01:43:46.417Z,29.70
2023-01-23T01:46:41.241Z,19.50
2023-01-23T01:49:35.529Z,21.70
2023-01-23T01:52:23.607Z,20.70
2023-01-23T01:55:16.698Z,22.10
2023-01-23T01:58:02.267Z,22.20
2023-01-23T02:00:55.489Z,23.20
2023-01-23T02:03:51.752Z,21.40
2023-01-23T02:06:38.731Z,21.70
2023-01-23T02:09:33.787Z,28.90
2023-01-23T02:12:28.330Z,28.80
2023-01-23T02:15:24.521Z,20.90
2023-01-23T02:18:10.320Z,18.50
2023-01-23T02:21:07.585Z,17.80
2023-01-23T02:24:19.744Z,17.80
2023-01-23T02:27:12.865Z,18.20
2023-01-23T02:29:58.776Z,18.40
2023-01-23T02:32:51.766Z,17.80
2023-01-23T02:35:44.629Z,18.30
2023-01-23T02:38:42.409Z,19.20
2023-01-23T02:41:37.451Z,18.10
2023-01-23T02:44:32.094Z,19.10
2023-01-23T02:47:25.517Z,19.80
2023-01-23T02:50:19.211Z,18.40
2023-01-23T02:53:13.611Z,17.50
2023-01-23T02:56:09.042Z,17.60
2023-01-23T02:59:20.190Z,19.00
2023-01-23T03:02:04.338Z,21.80
2023-01-23T03:04:57.300Z,23.50
2023-01-23T03:07:50.208Z,21.20
2023-01-23T03:10:34.572Z,16.70
2023-01-23T03:13:27.496Z,16.50
2023-01-23T03:16:21.683Z,17.70
2023-01-23T03:19:14.586Z,16.40
2023-01-23T03:22:09.503Z,16.40
2023-01-23T03:24:57.935Z,16.40
2023-01-23T03:27:52.320Z,13.80
2023-01-23T03:30:45.356Z,14.60
2023-01-23T03:33:31.580Z,14.50
2023-01-23T03:36:18.407Z,14.80
2023-01-23T03:39:28.929Z,14.50
2023-01-23T03:42:21.977Z,14.30
2023-01-23T03:45:16.287Z,13.70
2023-01-23T03:48:09.813Z,15.30
2023-01-23T03:50:56.776Z,15.20
2023-01-23T03:53:49.918Z,15.10
2023-01-23T03:56:36.587Z,19.10
2023-01-23T03:59:22.724Z,26.70
2023-01-23T04:02:15.867Z,27.40
2023-01-23T04:05:01.804Z,25.60
2023-01-23T04:07:54.770Z,18.10
2023-01-23T04:10:48.532Z,15.00
2023-01-23T04:13:41.583Z,13.70
2023-01-23T04:16:34.875Z,15.50
2023-01-23T04:19:21.227Z,15.90
2023-01-23T04:22:14.153Z,14.40
2023-01-23T04:25:06.743Z,15.20
2023-01-23T04:27:59.753Z,15.20
2023-01-23T04:30:53.686Z,15.90
2023-01-23T04:33:49.641Z,18.90
2023-01-23T04:36:44.000Z,17.60
2023-01-23T04:39:37.049Z,16.80
2023-01-23T04:42:23.710Z,16.60
2023-01-23T04:45:28.733Z,15.60
2023-01-23T04:48:22.537Z,17.70
2023-01-23T04:51:15.649Z,17.20
2023-01-23T04:54:10.247Z,18.00
2023-01-23T04:57:03.515Z,18.50
2023-01-23T04:59:58.121Z,17.30
2023-01-23T05:02:47.153Z,19.20
2023-01-23T05:05:40.616Z,17.00
2023-01-23T05:08:33.690Z,15.90
2023-01-23T05:11:29.420Z,16.00
2023-01-23T05:14:24.472Z,15.80
2023-01-23T05:17:02.825Z,17.20
2023-01-23T05:19:52.581Z,19.70
2023-01-23T05:22:39.589Z,19.80
2023-01-23T05:25:27.420Z,19.30
2023-01-23T05:28:22.225Z,19.30
2023-01-23T05:31:15.070Z,19.40
2023-01-23T05:34:08.202Z,19.50
2023-01-23T05:37:01.427Z,18.70
2023-01-23T05:39:54.883Z,18.40
2023-01-23T05:42:47.845Z,18.60
2023-01-23T05:45:46.702Z,18.70
2023-01-23T05:48:39.609Z,22.10
2023-01-23T05:51:34.130Z,19.00
2023-01-23T05:54:26.234Z,19.40
2023-01-23T05:57:19.288Z,19.90
2023-01-23T06:00:15.623Z,19.30
2023-01-23T06:03:08.853Z,21.70
2023-01-23T06:06:05.276Z,20.80
2023-01-23T06:08:51.058Z,20.10
2023-01-23T06:11:43.949Z,18.20
2023-01-23T06:14:36.138Z,15.90
2023-01-23T06:17:30.634Z,16.50
2023-01-23T06:20:23.725Z,16.10
2023-01-23T06:23:16.737Z,16.70
2023-01-23T06:26:10.659Z,17.40
2023-01-23T06:29:03.430Z,18.70
2023-01-23T06:31:56.369Z,18.20
2023-01-23T06:34:49.308Z,16.20
2023-01-23T06:37:42.552Z,16.50
2023-01-23T06:40:36.188Z,15.00
2023-01-23T06:43:29.866Z,14.10
2023-01-23T06:46:23.001Z,16.20
2023-01-23T06:49:15.995Z,16.20
2023-01-23T06:52:09.367Z,16.60
2023-01-23T06:55:02.052Z,16.10
2023-01-23T06:57:55.751Z,16.80
2023-01-23T07:00:48.781Z,14.80
2023-01-23T07:03:42.142Z,16.60
2023-01-23T07:06:35.271Z,15.20
2023-01-23T07:09:29.075Z,16.20
2023-01-23T07:12:25.388Z,15.40
2023-01-23T07:15:13.973Z,15.20
2023-01-23T07:18:07.045Z,15.80
2023-01-23T07:21:02.060Z,16.40
2023-01-23T07:23:54.808Z,14.40
2023-01-23T07:26:37.790Z,14.80
2023-01-23T07:29:31.177Z,13.80
2023-01-23T07:32:24.022Z,14.00
2023-01-23T07:35:16.962Z,14.30
2023-01-23T07:38:10.043Z,13.00
2023-01-23T07:41:03.506Z,13.20
2023-01-23T07:43:50.423Z,14.50
2023-01-23T07:46:43.816Z,13.90
2023-01-23T07:49:36.786Z,15.50
2023-01-23T07:52:29.935Z,16.90
2023-01-23T07:55:23.019Z,15.40
2023-01-23T07:58:16.213Z,14.30
2023-01-23T08:01:17.594Z,14.40
2023-01-23T08:04:10.723Z,12.10
2023-01-23T08:07:03.971Z,12.90
2023-01-23T08:09:57.109Z,14.10
2023-01-23T08:12:54.591Z,14.70
2023-01-23T08:15:48.431Z,14.00
2023-01-23T08:18:41.614Z,14.70
2023-01-23T08:21:34.945Z,15.10
2023-01-23T08:24:25.343Z,14.20
2023-01-23T08:27:15.259Z,15.50
2023-01-23T08:30:12.849Z,17.20
2023-01-23T08:32:58.336Z,16.60
2023-01-23T08:35:54.499Z,18.20
2023-01-23T08:38:47.678Z,14.90
2023-01-23T08:41:41.164Z,13.50
2023-01-23T08:44:34.424Z,12.80
2023-01-23T08:47:27.670Z,12.10
2023-01-23T08:50:20.350Z,12.70
2023-01-23T08:53:13.964Z,12.20
2023-01-23T08:56:09.736Z,13.10
2023-01-23T08:59:02.679Z,12.10
2023-01-23T09:01:55.647Z,12.40
2023-01-23T09:04:42.520Z,12.80
2023-01-23T09:07:38.149Z,13.00
2023-01-23T09:10:30.996Z,13.20
2023-01-23T09:13:23.872Z,13.70
2023-01-23T09:16:17.395Z,13.50
2023-01-23T09:19:02.642Z,13.30
2023-01-23T09:21:58.037Z,15.70
2023-01-23T09:24:50.937Z,16.40
2023-01-23T09:27:44.024Z,16.70
2023-01-23T09:30:37.286Z,13.40
2023-01-23T09:33:30.511Z,13.60
2023-01-23T09:36:37.541Z,13.50
2023-01-23T09:39:33.507Z,12.10
2023-01-23T09:42:34.638Z,13.10
2023-01-23T09:45:24.635Z,13.50
2023-01-23T09:48:28.465Z,13.70
2023-01-23T09:51:20.327Z,15.00
2023-01-23T09:54:23.782Z,14.60
2023-01-23T09:57:22.555Z,16.10
2023-01-23T10:00:23.870Z,16.20
2023-01-23T10:03:18.250Z,16.40
2023-01-23T10:06:21.811Z,16.40
2023-01-23T10:09:32.194Z,16.40
2023-01-23T10:12:37.298Z,15.20
2023-01-23T10:15:41.969Z,16.50
2023-01-23T10:18:38.681Z,16.00
2023-01-23T10:21:38.572Z,16.90
2023-01-23T10:24:47.860Z,18.70
2023-01-23T10:27:44.471Z,19.20
2023-01-23T10:30:39.782Z,19.70
2023-01-23T10:33:36.082Z,18.20
2023-01-23T10:36:47.636Z,17.40
2023-01-23T10:39:56.119Z,17.40
2023-01-23T10:42:49.271Z,16.30
2023-01-23T10:45:43.578Z,15.50
2023-01-23T10:48:43.767Z,16.20
2023-01-23T10:51:48.685Z,17.50
2023-01-23T10:54:49.663Z,18.70
2023-01-23T10:58:06.948Z,20.00
2023-01-23T11:03:50.384Z,24.20
2023-01-23T11:06:43.159Z,22.10
2023-01-23T11:09:56.762Z,22.00
2023-01-23T11:12:54.206Z,21.90
2023-01-23T11:15:51.302Z,20.50
2023-01-23T11:18:44.392Z,20.30
2023-01-23T11:21:53.423Z,23.50
2023-01-23T11:24:46.503Z,24.90
2023-01-23T11:27:40.060Z,29.20
2023-01-23T11:30:40.047Z,32.40
2023-01-23T11:33:33.591Z,35.30
2023-01-23T11:36:45.837Z,28.30
2023-01-23T11:39:51.643Z,24.60
2023-01-23T11:42:47.799Z,22.10
2023-01-23T11:45:47.792Z,22.60
2023-01-23T11:48:52.637Z,20.80
2023-01-23T11:51:55.957Z,22.40
2023-01-23T11:55:05.105Z,23.70
2023-01-23T11:58:04.029Z,23.10
2023-01-23T12:01:08.825Z,30.80
2023-01-23T12:04:33.426Z,70.40
2023-01-23T12:07:22.049Z,63.10
2023-01-23T12:10:25.455Z,78.40
2023-01-23T12:13:37.596Z,49.30
2023-01-23T12:16:41.276Z,43.90
2023-01-23T12:20:03.136Z,41.40
2023-01-23T12:23:08.279Z,45.20
2023-01-23T12:25:57.512Z,41.20
2023-01-23T12:29:07.263Z,41.80
2023-01-23T12:32:05.997Z,56.30
2023-01-23T12:35:05.610Z,38.00
2023-01-23T12:38:14.303Z,37.70
2023-01-23T12:41:10.658Z,35.00
2023-01-23T12:44:03.373Z,33.80
2023-01-23T12:47:00.392Z,34.00
2023-01-23T12:49:57.953Z,35.80
2023-01-23T12:52:55.140Z,32.20
2023-01-23T12:55:59.685Z,28.20
2023-01-23T12:58:49.709Z,27.70
2023-01-23T13:01:56.822Z,26.30
2023-01-23T13:05:06.697Z,25.50
2023-01-23T13:08:04.376Z,27.00
2023-01-23T13:11:28.735Z,27.70
2023-01-23T13:14:32.851Z,26.80
2023-01-23T13:17:39.274Z,30.10
2023-01-23T13:20:53.723Z,30.90
2023-01-23T13:23:46.852Z,32.80
2023-01-23T13:26:39.928Z,32.60
2023-01-23T13:29:49.365Z,30.00
2023-01-23T13:32:43.736Z,29.20
2023-01-23T13:35:56.373Z,30.70
2023-01-23T13:39:25.481Z,28.50
2023-01-23T13:42:46.765Z,28.30
2023-01-23T13:45:37.152Z,31.00
2023-01-23T14:23:26.520Z,34.10
2023-01-23T14:26:16.751Z,27.30
2023-01-23T14:29:24.156Z,29.90
2023-01-23T14:32:25.574Z,33.00
2023-01-23T14:35:25.263Z,28.80
2023-01-23T14:38:24.683Z,29.00
2023-01-23T14:41:28.013Z,27.60
2023-01-23T14:44:27.502Z,28.50
2023-01-23T14:47:15.651Z,27.90
2023-01-23T14:50:17.254Z,32.10
2023-01-23T14:53:07.120Z,32.60
2023-01-23T14:56:01.985Z,36.50
2023-01-23T14:58:53.581Z,33.00
2023-01-23T15:01:56.198Z,30.90
2023-01-23T15:04:33.818Z,29.40
2023-01-23T15:07:25.823Z,31.20
2023-01-23T15:10:25.501Z,35.30
2023-01-23T15:13:14.291Z,44.40
2023-01-23T15:16:19.711Z,41.80
2023-01-23T15:19:24.423Z,56.00
2023-01-23T15:22:09.110Z,52.80
2023-01-23T15:25:20.952Z,53.80
2023-01-23T15:28:40.590Z,58.80
2023-01-23T15:31:32.300Z,62.90
2023-01-23T15:34:26.345Z,63.50
2023-01-23T15:37:25.973Z,62.20
2023-01-23T15:40:27.703Z,59.50
2023-01-23T15:43:08.809Z,55.70
2023-01-23T15:46:01.844Z,61.80
2023-01-23T15:48:40.362Z,61.30
2023-01-23T15:51:33.600Z,70.20
2023-01-23T15:54:21.305Z,74.80
2023-01-23T15:57:07.664Z,77.50
2023-01-23T15:59:57.206Z,72.50
2023-01-23T16:02:39.373Z,67.30
2023-01-23T16:05:17.359Z,82.00
2023-01-23T16:07:57.741Z,64.80
2023-01-23T16:10:51.371Z,66.90
2023-01-23T16:13:44.496Z,59.70
2023-01-23T16:16:36.497Z,67.10
2023-01-23T16:19:29.273Z,59.70
2023-01-23T16:22:26.989Z,69.70
2023-01-23T16:25:41.895Z,61.80
2023-01-23T16:28:35.858Z,61.80
2023-01-23T16:31:15.201Z,62.70
2023-01-23T16:34:01.066Z,72.20
2023-01-23T16:36:36.610Z,65.10
2023-01-23T16:39:24.659Z,62.30
2023-01-23T16:42:23.612Z,63.10
2023-01-23T16:45:23.256Z,67.10
2023-01-23T16:48:01.428Z,66.50
2023-01-23T16:50:44.006Z,66.70
2023-01-23T16:53:33.064Z,54.70
2023-01-23T16:56:30.949Z,50.30
2023-01-23T16:59:29.611Z,52.60
2023-01-23T17:02:29.089Z,57.90
2023-01-23T17:05:22.591Z,60.50
2023-01-23T17:08:12.601Z,53.40
2023-01-23T17:10:46.962Z,48.70
2023-01-23T17:13:35.893Z,50.40
2023-01-23T17:16:31.315Z,55.20
2023-01-23T17:19:30.776Z,58.00
2023-01-23T17:22:24.936Z,52.40
2023-01-23T17:25:20.372Z,61.80
2023-01-23T17:28:11.155Z,49.70
2023-01-23T17:30:48.286Z,48.70
2023-01-23T17:33:42.665Z,52.50
2023-01-23T17:36:36.539Z,45.70
2023-01-23T17:39:25.804Z,54.60
2023-01-23T17:42:10.799Z,56.40
2023-01-23T17:45:06.707Z,46.90
2023-01-23T17:47:42.760Z,44.50
2023-01-23T17:50:27.208Z,44.50
2023-01-23T17:52:59.955Z,43.90
2023-01-23T17:55:54.123Z,42.10
2023-01-23T17:58:47.066Z,40.10
2023-01-23T18:01:34.310Z,39.40
2023-01-23T18:04:21.326Z,37.70
2023-01-23T18:07:16.781Z,40.00
2023-01-23T18:10:12.823Z,41.20
2023-01-23T18:13:21.616Z,46.90
2023-01-23T18:16:20.268Z,48.50
2023-01-23T18:19:18.401Z,50.80
2023-01-23T18:22:14.481Z,50.20
2023-01-23T18:25:14.164Z,50.30
2023-01-23T18:28:06.438Z,52.40
2023-01-23T18:31:00.525Z,52.00
2023-01-23T18:34:03.123Z,53.90
2023-01-23T18:37:00.904Z,54.50
2023-01-23T18:40:00.424Z,52.10
2023-01-23T18:45:28.074Z,57.60
2023-01-23T18:48:25.919Z,63.60
2023-01-23T18:51:33.162Z,60.00
2023-01-23T18:54:26.737Z,54.30
2023-01-23T18:57:31.411Z,50.50
2023-01-23T19:00:24.210Z,50.00
2023-01-23T19:03:12.190Z,49.60
2023-01-23T19:05:45.476Z,49.60
2023-01-23T19:08:39.120Z,53.10
2023-01-23T19:11:33.556Z,50.50
2023-01-23T19:14:51.356Z,49.40
2023-01-23T19:17:52.593Z,51.20
2023-01-23T19:20:45.727Z,47.30
2023-01-23T19:23:33.935Z,46.20
2023-01-23T19:26:15.116Z,43.80
2023-01-23T19:29:21.091Z,37.90
2023-01-23T19:32:12.234Z,34.70
2023-01-23T19:35:13.781Z,31.70
2023-01-23T19:38:00.467Z,28.10
2023-01-23T19:40:53.438Z,26.70
2023-01-23T19:43:44.654Z,27.10
2023-01-23T19:46:21.310Z,23.80
2023-01-23T19:49:06.802Z,24.90
2023-01-23T19:51:49.589Z,24.10
2023-01-23T19:54:42.311Z,24.50
2023-01-23T19:57:35.076Z,26.30
2023-01-23T20:00:29.669Z,27.20
2023-01-23T20:03:22.456Z,25.10
2023-01-23T20:06:00.181Z,23.30
2023-01-23T20:08:40.108Z,20.60
2023-01-23T20:11:16.128Z,21.40
2023-01-23T20:13:52.024Z,20.60
2023-01-23T20:16:45.693Z,21.60
2023-01-23T20:19:39.746Z,21.50
2023-01-23T20:22:19.328Z,22.60
2023-01-23T20:25:05.011Z,21.30
2023-01-23T20:27:50.744Z,19.50
2023-01-23T20:30:43.561Z,19.70
2023-01-23T20:33:37.007Z,20.70
2023-01-23T20:36:29.917Z,18.50
2023-01-23T20:39:16.642Z,19.00
2023-01-23T20:42:02.020Z,18.60
2023-01-23T20:44:54.852Z,18.00
2023-01-23T20:47:51.238Z,18.30
2023-01-23T20:50:31.455Z,17.60
2023-01-23T20:53:34.241Z,17.10
2023-01-23T20:56:20.009Z,19.90
2023-01-23T20:59:25.236Z,18.50
2023-01-23T21:02:25.831Z,18.80
2023-01-23T21:05:19.452Z,18.40
2023-01-23T21:08:09.777Z,18.50
2023-01-23T21:10:56.425Z,17.80
2023-01-23T21:13:54.647Z,20.00
2023-01-23T21:19:49.286Z,18.40
2023-01-23T21:22:42.119Z,18.50
2023-01-23T21:25:15.127Z,17.00
2023-01-23T21:28:09.757Z,16.80
2023-01-23T21:30:54.297Z,15.90
2023-01-23T21:33:47.618Z,15.90
2023-01-23T21:36:41.919Z,14.40
2023-01-23T21:39:35.368Z,14.80
2023-01-23T21:42:29.350Z,13.70
2023-01-23T21:45:14.876Z,14.40
2023-01-23T21:48:08.245Z,13.30
2023-01-23T21:51:08.739Z,14.10
2023-01-23T21:54:01.702Z,13.20
2023-01-23T21:56:47.465Z,13.40
2023-01-23T21:59:40.170Z,13.00
2023-01-23T22:02:35.678Z,12.20
2023-01-23T22:05:12.741Z,13.10
2023-01-23T22:08:07.070Z,13.20
2023-01-23T22:11:00.484Z,13.40
2023-01-23T22:13:53.342Z,14.10
2023-01-23T22:16:49.756Z,14.10
2023-01-23T22:19:36.390Z,12.80
2023-01-23T22:22:28.323Z,13.10
2023-01-23T22:25:22.097Z,14.00
2023-01-23T22:28:09.123Z,13.90
2023-01-23T22:31:08.074Z,14.10
2023-01-23T22:34:00.891Z,14.30
2023-01-23T22:36:43.681Z,14.00
2023-01-23T22:39:30.434Z,14.60
2023-01-23T22:42:23.206Z,15.20
2023-01-23T22:45:16.354Z,15.20
2023-01-23T22:48:09.610Z,15.10
2023-01-23T22:50:55.415Z,16.20
2023-01-23T22:54:08.806Z,16.70
2023-01-23T22:57:00.694Z,24.10
2023-01-23T22:59:33.546Z,15.30
2023-01-23T23:02:26.226Z,14.60
2023-01-23T23:05:19.592Z,16.10
2023-01-23T23:08:13.714Z,14.70
2023-01-23T23:11:08.469Z,14.20
2023-01-23T23:14:03.283Z,15.40
2023-01-23T23:16:48.722Z,14.80
2023-01-23T23:19:41.518Z,15.30
2023-01-23T23:22:34.742Z,16.20
2023-01-23T23:25:20.795Z,14.60
2023-01-23T23:28:13.843Z,15.60
2023-01-23T23:31:07.071Z,16.40
2023-01-23T23:33:40.596Z,16.20
2023-01-23T23:36:33.273Z,16.10
2023-01-23T23:39:14.973Z,17.30
2023-01-23T23:42:06.592Z,17.80
2023-01-23T23:44:59.585Z,17.40
2023-01-23T23:47:46.140Z,17.90
2023-01-23T23:50:39.077Z,18.00
2023-01-23T23:53:32.155Z,20.30
2023-01-23T23:56:23.175Z,18.50
2023-01-23T23:59:18.148Z,19.70
